Time;durP1;ratioP1;P1;durP2;ratioP2;P2;SDS_P1;SDS_P2;PMS_P1;PMS_P2;Temp;Humidity;BMP_temperature;BMP_pressure;BME280_temperature;BME280_humidity;BME280_pressure;Samples;Min_cycle;Max_cycle;Signal;HPM_P1;HPM_P2
2022/05/13 00:00:55;;;;;;;1.83;1.30;;;24.90;56.00;;;;;;5004340;28;20264;-88
2022/05/13 00:03:21;;;;;;;2.30;1.30;;;24.90;56.00;;;;;;5004130;28;20416;-90
2022/05/13 00:05:49;;;;;;;1.90;1.47;;;24.90;56.10;;;;;;5004318;28;20902;-89
2022/05/13 00:08:18;;;;;;;1.77;1.20;;;24.90;56.00;;;;;;5006051;28;20264;-90
2022/05/13 00:10:44;;;;;;;1.30;1.13;;;24.90;56.10;;;;;;5008250;28;20412;-88
2022/05/13 00:13:20;;;;;;;2.70;1.47;;;24.90;56.10;;;;;;5008747;28;20420;-89
2022/05/13 00:15:46;;;;;;;1.60;1.50;;;24.90;56.00;;;;;;5006792;28;20415;-89
2022/05/13 00:18:12;;;;;;;1.80;1.40;;;24.90;56.10;;;;;;5008806;28;20420;-89
2022/05/13 00:20:38;;;;;;;2.20;1.53;;;24.90;56.10;;;;;;5006947;28;21011;-89
2022/05/13 00:23:04;;;;;;;1.77;1.67;;;24.90;56.10;;;;;;5007764;28;20392;-89
2022/05/13 00:25:33;;;;;;;1.47;1.30;;;24.90;56.00;;;;;;5008909;28;20416;-89
2022/05/13 00:28:00;;;;;;;2.47;1.37;;;24.90;56.00;;;;;;5006462;28;20400;-89
2022/05/13 00:30:28;;;;;;;1.50;1.20;;;24.90;56.00;;;;;;5004423;28;20419;-90
2022/05/13 00:32:54;;;;;;;2.90;1.50;;;24.90;56.00;;;;;;5003970;28;20462;-89
2022/05/13 00:35:21;;;;;;;1.70;1.50;;;24.90;56.00;;;;;;5004678;28;20412;-89
2022/05/13 00:37:47;;;;;;;1.30;1.20;;;24.90;56.00;;;;;;5004395;28;20416;-89
2022/05/13 00:40:14;;;;;;;1.73;1.50;;;24.90;56.00;;;;;;5004412;28;20507;-89
2022/05/13 00:42:41;;;;;;;1.60;1.50;;;24.90;56.00;;;;;;5005003;28;20424;-89
2022/05/13 00:45:07;;;;;;;1.20;1.10;;;24.90;56.00;;;;;;5004413;28;20417;-89
2022/05/13 00:47:33;;;;;;;2.20;1.47;;;24.90;56.00;;;;;;5003187;28;20430;-90
2022/05/13 00:50:01;;;;;;;1.93;1.30;;;24.90;56.00;;;;;;5004746;28;20452;-90
2022/05/13 00:52:27;;;;;;;1.37;1.17;;;24.90;56.00;;;;;;4993425;28;20201;-88
2022/05/13 00:54:54;;;;;;;1.30;1.20;;;24.90;56.00;;;;;;4985699;28;20428;-88
2022/05/13 00:57:21;;;;;;;1.70;1.20;;;25.00;56.00;;;;;;4984667;28;20424;-89
2022/05/13 00:59:50;;;;;;;2.00;1.50;;;24.90;56.00;;;;;;4984014;28;20421;-89
2022/05/13 01:02:16;;;;;;;1.50;1.40;;;25.00;56.00;;;;;;4984448;28;20465;-89
2022/05/13 01:04:43;;;;;;;1.30;1.07;;;24.90;56.00;;;;;;4985366;28;20405;-89
2022/05/13 01:07:15;;;;;;;1.47;1.20;;;25.00;56.00;;;;;;4986066;28;20474;-88
2022/05/13 01:09:54;;;;;;;1.23;1.13;;;25.00;56.00;;;;;;4988076;28;20420;-89
2022/05/13 01:12:29;;;;;;;1.47;1.37;;;25.00;56.00;;;;;;4986392;28;20485;-89
2022/05/13 01:15:01;;;;;;;1.70;1.30;;;25.00;56.00;;;;;;4986496;28;20426;-89
2022/05/13 01:20:24;;;;;;;1.87;1.57;;;25.00;56.60;;;;;;5007395;28;20909;-88
2022/05/13 01:22:56;;;;;;;1.73;1.63;;;24.90;55.90;;;;;;5007224;28;20937;-88
2022/05/13 01:25:28;;;;;;;1.20;0.97;;;24.90;56.00;;;;;;5007231;28;20412;-88
2022/05/13 01:28:06;;;;;;;1.50;1.40;;;25.00;56.00;;;;;;5004006;28;20428;-89
2022/05/13 01:30:32;;;;;;;1.50;1.10;;;24.90;55.90;;;;;;5004336;28;20595;-88
2022/05/13 01:32:57;;;;;;;1.40;1.30;;;24.90;55.90;;;;;;5019483;28;20412;-89
2022/05/13 01:35:23;;;;;;;1.87;1.30;;;25.00;56.00;;;;;;5005352;28;20256;-89
2022/05/13 01:37:50;;;;;;;1.40;1.20;;;25.00;56.00;;;;;;5003459;28;20188;-88
2022/05/13 01:40:16;;;;;;;1.50;1.40;;;25.00;56.00;;;;;;5003378;28;20185;-88
2022/05/13 01:42:42;;;;;;;2.00;1.53;;;25.00;56.00;;;;;;5003021;28;20443;-88
2022/05/13 01:45:10;;;;;;;1.60;1.20;;;25.00;56.00;;;;;;5003152;28;20420;-88
2022/05/13 01:47:36;;;;;;;1.40;1.23;;;25.00;56.00;;;;;;5003441;28;20425;-89
2022/05/13 01:50:05;;;;;;;2.00;1.40;;;25.00;55.90;;;;;;5004124;28;20444;-89
2022/05/13 01:52:31;;;;;;;1.23;1.00;;;25.00;56.00;;;;;;5003180;28;20425;-89
2022/05/13 01:54:56;;;;;;;1.30;1.20;;;25.00;55.90;;;;;;5004383;28;20440;-89
2022/05/13 01:57:22;;;;;;;1.60;1.33;;;25.00;55.90;;;;;;5002914;28;20432;-89
2022/05/13 01:59:48;;;;;;;1.37;1.20;;;25.00;55.90;;;;;;5003431;28;20184;-89
2022/05/13 02:05:36;;;;;;;1.50;1.30;;;25.00;55.90;;;;;;5004889;28;20175;-90
2022/05/13 02:08:03;;;;;;;1.83;1.30;;;24.90;55.90;;;;;;5007600;28;20417;-89
2022/05/13 02:10:29;;;;;;;1.53;1.10;;;24.90;55.90;;;;;;5004779;28;20275;-90
2022/05/13 02:12:56;;;;;;;1.57;1.30;;;25.00;56.00;;;;;;5003566;28;20447;-90
2022/05/13 02:15:22;;;;;;;1.50;1.37;;;25.00;55.90;;;;;;5006738;28;20914;-89
2022/05/13 02:17:47;;;;;;;2.50;1.30;;;25.00;55.90;;;;;;5007012;28;20408;-89
2022/05/13 02:20:14;;;;;;;1.47;1.33;;;25.00;55.90;;;;;;5003374;28;20173;-90
2022/05/13 02:22:39;;;;;;;1.40;1.20;;;25.00;55.90;;;;;;5006003;28;20184;-90
2022/05/13 02:25:09;;;;;;;1.90;1.40;;;25.00;55.90;;;;;;5004757;28;20412;-90
2022/05/13 02:27:39;;;;;;;1.63;1.10;;;25.00;55.90;;;;;;5002758;28;20176;-89
2022/05/13 02:30:06;;;;;;;1.63;1.40;;;25.00;55.90;;;;;;5002610;28;20449;-89
2022/05/13 02:32:32;;;;;;;1.20;1.10;;;25.00;55.90;;;;;;5003076;28;21179;-90
2022/05/13 02:34:57;;;;;;;1.73;1.30;;;25.00;55.90;;;;;;5004196;28;20431;-90
2022/05/13 02:37:23;;;;;;;1.10;1.00;;;25.00;55.90;;;;;;5002566;28;20188;-90
2022/05/13 02:39:49;;;;;;;1.50;1.20;;;25.00;55.90;;;;;;5002964;28;20189;-90
2022/05/13 02:45:37;;;;;;;1.13;1.03;;;25.00;55.90;;;;;;5003472;28;20604;-91
2022/05/13 02:48:03;;;;;;;1.37;1.27;;;24.90;55.80;;;;;;5002737;28;20428;-90
2022/05/13 02:50:28;;;;;;;1.53;1.40;;;24.90;55.80;;;;;;5003411;28;20188;-89
2022/05/13 02:52:55;;;;;;;2.40;1.30;;;24.90;55.80;;;;;;5003982;28;20169;-89
2022/05/13 02:55:21;;;;;;;1.43;1.20;;;25.00;55.90;;;;;;5002289;28;20267;-89
2022/05/13 02:57:47;;;;;;;1.70;1.37;;;25.00;55.90;;;;;;5003632;28;20417;-90
2022/05/13 03:00:15;;;;;;;1.30;1.20;;;25.00;55.90;;;;;;5001663;28;20281;-89
2022/05/13 03:02:43;;;;;;;1.37;1.20;;;25.00;55.90;;;;;;5002885;28;20448;-90
2022/05/13 03:05:10;;;;;;;1.63;1.40;;;25.00;55.90;;;;;;5005175;28;20428;-90
2022/05/13 03:07:35;;;;;;;1.47;1.17;;;25.00;55.90;;;;;;5006520;28;20427;-88
2022/05/13 03:10:05;;;;;;;1.30;1.10;;;25.00;55.90;;;;;;5003427;28;20416;-89
2022/05/13 03:12:31;;;;;;;1.50;1.40;;;25.00;55.90;;;;;;5005134;28;20181;-89
2022/05/13 03:14:57;;;;;;;1.93;1.40;;;25.00;55.90;;;;;;5006143;28;20420;-89
2022/05/13 03:17:22;;;;;;;1.20;1.10;;;25.00;55.90;;;;;;5002701;28;20547;-88
2022/05/13 03:19:50;;;;;;;1.83;1.30;;;25.00;55.90;;;;;;5006534;28;20173;-90
2022/05/13 03:22:16;;;;;;;1.20;1.10;;;25.00;55.90;;;;;;5004962;28;20196;-89
2022/05/13 03:24:44;;;;;;;1.47;1.27;;;25.00;55.90;;;;;;5003250;28;20409;-89
2022/05/13 03:27:13;;;;;;;1.40;1.30;;;25.00;55.90;;;;;;5003470;28;20409;-89
2022/05/13 03:30:13;;;;;;;3.60;1.43;;;25.00;55.80;;;;;;5003604;28;20436;-89
2022/05/13 03:32:40;;;;;;;1.87;1.37;;;25.00;55.80;;;;;;5005482;28;20409;-89
2022/05/13 03:35:09;;;;;;;1.87;1.40;;;25.00;55.90;;;;;;5006047;28;20423;-89
2022/05/13 03:37:35;;;;;;;1.87;1.30;;;25.00;55.90;;;;;;5005298;28;20412;-89
2022/05/13 03:40:00;;;;;;;1.50;1.10;;;25.00;55.90;;;;;;5006543;28;20423;-89
2022/05/13 03:42:26;;;;;;;1.40;1.30;;;25.00;55.90;;;;;;5004785;28;20212;-89
2022/05/13 03:44:52;;;;;;;1.50;1.40;;;25.00;55.90;;;;;;5005628;28;20189;-89
2022/05/13 03:50:45;;;;;;;1.27;1.07;;;25.00;55.90;;;;;;5006433;28;20212;-89
2022/05/13 03:53:11;;;;;;;1.30;1.20;;;24.90;55.80;;;;;;5006473;28;20432;-89
2022/05/13 03:55:49;;;;;;;1.47;1.33;;;24.90;55.80;;;;;;5005818;28;20404;-89
2022/05/13 04:01:37;;;;;;;1.30;1.20;;;25.00;55.90;;;;;;5000293;28;20467;-89
2022/05/13 04:04:03;;;;;;;1.20;1.00;;;24.90;55.80;;;;;;5002165;28;20429;-89
2022/05/13 04:09:13;;;;;;;1.20;1.10;;;24.90;55.80;;;;;;5001066;28;20399;-88
2022/05/13 04:11:40;;;;;;;1.53;1.27;;;24.90;55.80;;;;;;5005057;28;20492;-87
2022/05/13 04:16:54;;;;;;;1.57;1.23;;;24.90;55.80;;;;;;4998167;28;20422;-88
2022/05/13 04:22:42;;;;;;;1.70;1.30;;;25.00;55.90;;;;;;4999556;28;20451;-85
2022/05/13 04:28:30;;;;;;;1.30;1.20;;;24.90;55.80;;;;;;5001447;28;20476;-85
2022/05/13 04:30:58;;;;;;;2.60;1.50;;;24.90;55.80;;;;;;5001223;28;20409;-85
2022/05/13 04:33:25;;;;;;;1.37;1.10;;;24.90;55.80;;;;;;5005492;28;20415;-86
2022/05/13 04:35:51;;;;;;;1.80;1.27;;;24.90;55.80;;;;;;5005725;28;20417;-85
2022/05/13 04:38:17;;;;;;;2.80;1.80;;;24.90;55.80;;;;;;5021241;28;20408;-86
2022/05/13 04:40:42;;;;;;;1.40;1.23;;;24.90;55.70;;;;;;5004553;28;20201;-86
2022/05/13 04:43:08;;;;;;;1.90;1.20;;;24.90;55.70;;;;;;5003799;28;20280;-86
2022/05/13 04:45:34;;;;;;;1.20;1.10;;;24.90;55.70;;;;;;5006064;28;20181;-85
2022/05/13 04:48:16;;;;;;;2.27;2.07;;;25.00;55.70;;;;;;5006807;28;20181;-85
2022/05/13 04:50:46;;;;;;;3.30;1.40;;;25.00;55.70;;;;;;5004018;28;20431;-85
2022/05/13 04:53:16;;;;;;;1.23;1.03;;;25.00;55.70;;;;;;4993558;28;20459;-85
2022/05/13 04:55:42;;;;;;;1.40;1.10;;;25.00;55.70;;;;;;5028987;28;20421;-85
2022/05/13 04:58:07;;;;;;;1.37;1.27;;;25.00;55.70;;;;;;4996752;28;20471;-85
2022/05/13 05:00:34;;;;;;;1.80;1.20;;;25.00;55.70;;;;;;4994098;28;20188;-85
2022/05/13 05:02:59;;;;;;;1.80;1.17;;;25.00;55.70;;;;;;4998855;28;20177;-85
2022/05/13 05:05:27;;;;;;;1.60;1.30;;;25.00;55.70;;;;;;5005512;28;20466;-85
2022/05/13 05:07:53;;;;;;;2.60;1.47;;;25.00;55.80;;;;;;5004633;28;20178;-85
2022/05/13 05:10:21;;;;;;;1.53;1.23;;;25.00;55.70;;;;;;5001451;28;20489;-85
2022/05/13 05:12:48;;;;;;;1.87;1.30;;;25.00;55.80;;;;;;5004068;28;20417;-86
2022/05/13 05:15:14;;;;;;;1.23;1.07;;;25.00;55.80;;;;;;4993611;28;20425;-85
2022/05/13 05:17:40;;;;;;;2.07;1.10;;;25.00;55.80;;;;;;5000320;28;20435;-85
2022/05/13 05:20:06;;;;;;;1.60;1.50;;;25.00;55.80;;;;;;4993765;28;20532;-86
2022/05/13 05:22:35;;;;;;;2.23;1.10;;;25.00;55.80;;;;;;4993955;28;20978;-87
2022/05/13 05:25:00;;;;;;;1.30;1.20;;;25.00;55.70;;;;;;4988881;28;20446;-88
2022/05/13 05:27:26;;;;;;;2.10;1.33;;;25.00;55.70;;;;;;4994540;28;20444;-87
2022/05/13 05:33:30;;;;;;;2.00;1.37;;;25.00;55.70;;;;;;4988396;28;20269;-88
2022/05/13 05:35:58;;;;;;;1.47;1.03;;;25.00;55.70;;;;;;4986878;28;20424;-87
2022/05/13 05:42:06;;;;;;;1.67;1.13;;;25.00;55.80;;;;;;4993207;28;20483;-88
2022/05/13 05:44:32;;;;;;;1.93;1.10;;;25.00;55.80;;;;;;4998844;28;20420;-88
2022/05/13 05:46:58;;;;;;;1.80;1.40;;;25.00;55.80;;;;;;4999739;28;20425;-88
2022/05/13 05:49:26;;;;;;;1.20;1.10;;;25.00;55.80;;;;;;4998694;28;20910;-89
2022/05/13 05:51:55;;;;;;;2.00;1.40;;;25.00;55.80;;;;;;5001690;28;20553;-88
2022/05/13 05:57:15;;;;;;;1.40;1.30;;;25.00;55.80;;;;;;5000335;28;20427;-88
2022/05/13 05:59:45;;;;;;;1.40;1.20;;;25.00;55.70;;;;;;5004541;28;20507;-88
2022/05/13 06:02:12;;;;;;;1.63;1.33;;;25.00;55.70;;;;;;4979438;28;20494;-88
2022/05/13 06:04:41;;;;;;;1.73;1.40;;;25.00;55.70;;;;;;5002005;28;20424;-89
2022/05/13 06:07:10;;;;;;;2.63;1.20;;;25.00;55.70;;;;;;5011141;28;20421;-89
2022/05/13 06:09:37;;;;;;;2.07;1.23;;;25.00;55.70;;;;;;4999170;28;20460;-89
2022/05/13 06:12:05;;;;;;;1.67;1.50;;;25.00;55.60;;;;;;4999296;28;20416;-89
2022/05/13 06:14:32;;;;;;;1.73;1.23;;;25.00;55.60;;;;;;5000803;28;20426;-89
2022/05/13 06:16:58;;;;;;;2.33;1.43;;;25.00;55.60;;;;;;5000910;28;20453;-89
2022/05/13 06:19:24;;;;;;;1.30;1.20;;;25.00;55.60;;;;;;5002964;28;20428;-89
2022/05/13 06:21:51;;;;;;;1.43;1.20;;;25.00;55.50;;;;;;5000912;28;20201;-89
2022/05/13 06:24:20;;;;;;;2.50;1.50;;;25.10;55.60;;;;;;5002150;28;20431;-89
2022/05/13 06:26:48;;;;;;;1.40;1.20;;;25.00;55.50;;;;;;5003840;28;20463;-90
2022/05/13 06:29:20;;;;;;;1.73;1.50;;;25.00;55.50;;;;;;5000091;28;20432;-88
2022/05/13 06:31:47;;;;;;;1.50;1.13;;;25.10;55.50;;;;;;5001358;28;20440;-88
2022/05/13 06:34:14;;;;;;;1.73;1.40;;;25.00;55.50;;;;;;5000836;28;20425;-89
2022/05/13 06:36:40;;;;;;;1.90;1.47;;;25.00;55.50;;;;;;5001430;28;20835;-89
2022/05/13 06:39:07;;;;;;;2.17;1.80;;;25.00;55.50;;;;;;5000167;28;20416;-89
2022/05/13 06:41:37;;;;;;;1.70;1.43;;;25.00;55.50;;;;;;5000817;28;20824;-88
2022/05/13 06:44:08;;;;;;;2.33;1.70;;;25.00;55.50;;;;;;4999544;28;20477;-89
2022/05/13 06:46:37;;;;;;;1.73;1.57;;;25.00;55.50;;;;;;5002391;28;20439;-88
2022/05/13 06:49:04;;;;;;;2.03;1.77;;;25.00;55.50;;;;;;5001930;28;20443;-88
2022/05/13 06:51:32;;;;;;;2.10;1.40;;;25.00;55.50;;;;;;5001448;28;20446;-89
2022/05/13 06:54:04;;;;;;;1.87;1.50;;;25.00;55.50;;;;;;5000279;28;20436;-89
2022/05/13 06:56:32;;;;;;;1.60;1.40;;;25.00;55.50;;;;;;4995802;28;20432;-88
2022/05/13 06:58:58;;;;;;;1.30;1.20;;;25.00;55.50;;;;;;4997989;28;20432;-88
2022/05/13 07:01:24;;;;;;;1.70;1.50;;;25.00;55.50;;;;;;4999004;28;20509;-88
2022/05/13 07:07:14;;;;;;;1.80;1.30;;;25.00;55.40;;;;;;4999211;28;20188;-87
2022/05/13 07:09:40;;;;;;;1.97;1.40;;;25.00;55.50;;;;;;5001300;28;20413;-87
2022/05/13 07:12:10;;;;;;;1.93;1.60;;;25.00;56.00;;;;;;5005392;28;20492;-88
2022/05/13 07:15:05;;;;;;;1.53;1.30;;;25.00;55.50;;;;;;5005074;28;20206;-88
2022/05/13 07:17:33;;;;;;;1.97;1.13;;;25.00;55.50;;;;;;5004916;28;20416;-89
2022/05/13 07:20:01;;;;;;;2.07;1.50;;;25.00;55.50;;;;;;5003376;28;20927;-88
2022/05/13 07:22:26;;;;;;;1.50;1.40;;;25.00;55.50;;;;;;5005372;28;20482;-89
2022/05/13 07:24:52;;;;;;;1.53;1.30;;;25.00;55.50;;;;;;5006356;28;20511;-87
2022/05/13 07:27:18;;;;;;;1.37;1.23;;;25.00;55.50;;;;;;5006455;28;20196;-88
2022/05/13 07:29:44;;;;;;;2.17;1.60;;;25.00;55.50;;;;;;5004985;28;20615;-88
2022/05/13 07:32:10;;;;;;;1.93;1.50;;;25.00;55.50;;;;;;5006045;28;20181;-88
2022/05/13 07:34:36;;;;;;;2.77;1.47;;;25.00;55.50;;;;;;5007077;28;20210;-88
2022/05/13 07:37:02;;;;;;;1.40;1.23;;;25.00;55.50;;;;;;5005547;28;20448;-88
2022/05/13 07:42:12;;;;;;;2.07;1.27;;;25.00;55.50;;;;;;5006093;28;20812;-88
2022/05/13 07:44:39;;;;;;;1.60;1.37;;;25.00;55.50;;;;;;5005691;28;20420;-87
2022/05/13 07:47:06;;;;;;;2.13;1.30;;;25.00;55.50;;;;;;5006277;28;20412;-88
2022/05/13 07:49:34;;;;;;;1.90;1.50;;;25.00;55.50;;;;;;5004574;28;20450;-88
2022/05/13 07:52:00;;;;;;;4.73;1.80;;;25.00;55.50;;;;;;5004561;28;20455;-87
2022/05/13 07:54:26;;;;;;;2.40;1.63;;;25.00;55.50;;;;;;5005886;28;20435;-89
2022/05/13 07:56:53;;;;;;;2.07;1.50;;;25.00;55.50;;;;;;5005415;28;20427;-90
2022/05/13 07:59:20;;;;;;;1.40;1.30;;;25.00;55.50;;;;;;5005942;28;20451;-89
2022/05/13 08:01:46;;;;;;;1.20;1.10;;;25.00;55.50;;;;;;5006630;28;20488;-89
2022/05/13 08:04:12;;;;;;;1.80;1.47;;;25.00;55.50;;;;;;5006003;28;20412;-89
2022/05/13 08:06:39;;;;;;;2.33;1.50;;;25.00;55.50;;;;;;5005086;28;20420;-90
2022/05/13 08:09:06;;;;;;;1.90;1.50;;;25.00;55.50;;;;;;5003838;28;20433;-89
2022/05/13 08:11:41;;;;;;;1.77;1.33;;;25.00;55.50;;;;;;5024475;28;20411;-90
2022/05/13 08:14:07;;;;;;;1.83;1.40;;;25.00;55.50;;;;;;5038663;28;21897;-89
2022/05/13 08:16:35;;;;;;;1.40;1.30;;;25.00;55.50;;;;;;5005749;28;20416;-89
2022/05/13 08:19:02;;;;;;;2.50;1.70;;;25.00;55.50;;;;;;5004344;28;20424;-89
2022/05/13 08:21:28;;;;;;;1.47;1.33;;;25.00;55.50;;;;;;4996825;28;20517;-90
2022/05/13 08:23:54;;;;;;;2.10;1.80;;;25.00;55.50;;;;;;5007254;28;20417;-89
2022/05/13 08:26:39;;;;;;;1.40;1.30;;;25.00;55.60;;;;;;5000908;28;20392;-90
2022/05/13 08:29:04;;;;;;;1.43;1.33;;;25.00;55.50;;;;;;5000722;28;20180;-89
2022/05/13 08:31:30;;;;;;;1.60;1.40;;;25.00;55.50;;;;;;4994951;28;20418;-90
2022/05/13 08:33:56;;;;;;;2.57;1.70;;;25.00;55.50;;;;;;4992630;28;20208;-91
2022/05/13 08:39:45;;;;;;;1.70;1.40;;;25.00;55.50;;;;;;4993160;28;20235;-90
2022/05/13 08:45:32;;;;;;;1.47;1.37;;;25.00;55.60;;;;;;4991193;28;20485;-90
2022/05/13 08:47:58;;;;;;;1.37;1.27;;;25.00;55.60;;;;;;4998400;28;20420;-90
2022/05/13 08:50:31;;;;;;;2.33;1.80;;;25.00;55.60;;;;;;4990292;28;20549;-90
2022/05/13 08:53:20;;;;;;;2.03;1.60;;;25.00;55.60;;;;;;5000209;28;20429;-89
2022/05/13 08:55:58;;;;;;;2.00;1.60;;;25.00;55.60;;;;;;4992372;28;20417;-89
2022/05/13 08:58:29;;;;;;;1.80;1.57;;;25.00;55.60;;;;;;5010019;28;20448;-90
2022/05/13 09:00:56;;;;;;;4.07;1.40;;;25.00;55.60;;;;;;4991899;28;20460;-89
2022/05/13 09:03:30;;;;;;;3.10;1.70;;;25.00;55.60;;;;;;4988757;28;20507;-89
2022/05/13 09:06:04;;;;;;;1.97;1.40;;;25.00;55.60;;;;;;4991039;28;20423;-89
2022/05/13 09:08:30;;;;;;;2.03;1.50;;;25.00;55.60;;;;;;4988861;28;20421;-90
2022/05/13 09:11:13;;;;;;;1.80;1.30;;;25.00;55.60;;;;;;4993528;28;20426;-89
2022/05/13 09:14:08;;;;;;;3.30;1.40;;;25.00;55.60;;;;;;4991671;28;20423;-90
2022/05/13 09:16:42;;;;;;;1.60;1.40;;;25.00;55.60;;;;;;4990739;28;20783;-90
2022/05/13 09:19:41;;;;;;;1.90;1.40;;;25.00;55.60;;;;;;4989041;28;20424;-89
2022/05/13 09:22:11;;;;;;;2.23;1.43;;;25.00;55.60;;;;;;5003035;28;20509;-87
2022/05/13 09:24:37;;;;;;;2.60;1.60;;;25.00;55.60;;;;;;4991122;28;20456;-87
2022/05/13 09:27:03;;;;;;;1.67;1.50;;;25.00;55.60;;;;;;5001799;28;20436;-87
2022/05/13 09:29:41;;;;;;;2.60;1.53;;;25.00;55.60;;;;;;4991141;28;20555;-87
2022/05/13 09:32:29;;;;;;;1.50;1.20;;;25.00;55.60;;;;;;5001164;28;20423;-87
2022/05/13 09:35:18;;;;;;;2.17;1.30;;;25.00;55.60;;;;;;5000128;28;20826;-87
2022/05/13 09:37:45;;;;;;;1.47;1.37;;;25.00;55.60;;;;;;4995188;28;20421;-88
2022/05/13 09:40:17;;;;;;;1.93;1.77;;;25.00;55.60;;;;;;4987276;28;20479;-87
2022/05/13 09:42:49;;;;;;;2.73;1.57;;;25.00;55.50;;;;;;4989374;28;20453;-87
2022/05/13 09:45:26;;;;;;;1.60;1.50;;;25.00;55.50;;;;;;4988851;28;20432;-87
2022/05/13 09:48:04;;;;;;;1.77;1.47;;;25.00;55.60;;;;;;4986329;28;20504;-87
2022/05/13 09:50:33;;;;;;;1.50;1.17;;;25.00;55.60;;;;;;4990736;28;20439;-87
2022/05/13 09:53:26;;;;;;;1.57;1.23;;;25.00;55.60;;;;;;5001137;28;20444;-87
2022/05/13 09:55:57;;;;;;;1.53;1.40;;;25.00;55.60;;;;;;4998194;28;20533;-87
2022/05/13 09:58:48;;;;;;;1.90;1.40;;;25.00;55.60;;;;;;4997880;28;20412;-87
2022/05/13 10:04:25;;;;;;;2.30;1.40;;;25.00;55.60;;;;;;5062291;27;20432;-87
2022/05/13 10:07:04;;;;;;;2.47;1.50;;;25.00;55.60;;;;;;5014493;28;20442;-87
2022/05/13 10:15:29;;;;;;;1.57;1.47;;;25.00;55.60;;;;;;4999210;28;20442;-87
2022/05/13 10:18:05;;;;;;;1.60;1.40;;;25.00;55.60;;;;;;5000926;28;20422;-87
2022/05/13 10:20:42;;;;;;;2.27;1.80;;;25.00;55.60;;;;;;5000280;28;20434;-87
2022/05/13 10:23:41;;;;;;;2.40;1.33;;;25.00;55.60;;;;;;4993592;28;20425;-87
2022/05/13 10:26:19;;;;;;;1.70;1.53;;;25.00;55.60;;;;;;5001354;28;20424;-87
2022/05/13 10:28:56;;;;;;;1.50;1.37;;;25.00;55.60;;;;;;4998503;28;20425;-88
2022/05/13 10:31:25;;;;;;;1.37;1.27;;;25.00;55.60;;;;;;4997810;28;20438;-87
2022/05/13 10:34:09;;;;;;;1.87;1.50;;;25.00;55.60;;;;;;5001480;28;20421;-87
2022/05/13 10:37:04;;;;;;;2.13;1.40;;;25.00;55.60;;;;;;4996802;28;20447;-86
2022/05/13 10:40:14;;;;;;;1.80;1.60;;;25.00;55.50;;;;;;4997955;28;20454;-87
2022/05/13 10:42:49;;;;;;;2.03;1.20;;;25.00;55.60;;;;;;5065285;28;20870;-87
2022/05/13 10:45:20;;;;;;;1.20;1.07;;;25.00;55.60;;;;;;5049710;28;20424;-87
2022/05/13 10:48:11;;;;;;;1.70;1.53;;;25.00;55.60;;;;;;5034799;28;20466;-86
2022/05/13 10:51:03;;;;;;;1.60;1.30;;;25.00;55.50;;;;;;5059143;28;20465;-87
2022/05/13 10:54:05;;;;;;;1.90;1.60;;;25.00;55.50;;;;;;5038990;28;20447;-87
2022/05/13 10:56:40;;;;;;;1.83;1.47;;;25.00;55.50;;;;;;5060268;28;20429;-87
2022/05/13 10:59:14;;;;;;;1.97;1.80;;;25.00;55.60;;;;;;5073280;28;20870;-85
2022/05/13 11:01:50;;;;;;;2.50;1.83;;;25.00;55.60;;;;;;5063493;28;20519;-87
2022/05/13 11:04:30;;;;;;;2.20;1.60;;;25.00;55.60;;;;;;5050221;28;20423;-87
2022/05/13 11:07:20;;;;;;;1.63;1.53;;;25.00;55.60;;;;;;5069009;28;20441;-87
2022/05/13 11:09:50;;;;;;;2.80;1.87;;;25.00;55.60;;;;;;5036899;28;20423;-87
2022/05/13 11:12:28;;;;;;;2.40;1.73;;;25.00;55.60;;;;;;5056079;28;20428;-87
2022/05/13 11:15:13;;;;;;;2.60;1.57;;;25.00;55.60;;;;;;4998590;28;20463;-87
2022/05/13 11:18:30;;;;;;;1.53;1.37;;;25.00;55.60;;;;;;4990368;28;20445;-86
2022/05/13 11:21:06;;;;;;;1.87;1.50;;;25.00;55.60;;;;;;4975215;28;20461;-86
2022/05/13 11:27:05;;;;;;;2.40;1.53;;;25.00;55.60;;;;;;4996676;28;20396;-87
2022/05/13 11:29:53;;;;;;;2.60;1.40;;;25.00;55.60;;;;;;4998196;28;20443;-87
2022/05/13 11:32:50;;;;;;;2.27;1.40;;;25.00;55.70;;;;;;5005508;28;20420;-85
2022/05/13 11:35:41;;;;;;;2.17;1.63;;;25.00;55.70;;;;;;4991277;28;20432;-85
2022/05/13 11:38:18;;;;;;;2.23;1.67;;;25.00;55.70;;;;;;4994352;28;20424;-85
2022/05/13 11:41:00;;;;;;;2.07;1.30;;;25.00;55.70;;;;;;4998590;28;20459;-85
2022/05/13 11:43:56;;;;;;;1.67;1.53;;;25.00;55.70;;;;;;4998903;28;20505;-85
2022/05/13 11:46:44;;;;;;;2.10;1.63;;;25.00;55.70;;;;;;4983635;28;20401;-86
2022/05/13 11:49:29;;;;;;;2.10;1.80;;;25.00;55.70;;;;;;4998282;28;20425;-86
2022/05/13 11:51:57;;;;;;;2.00;1.80;;;25.00;55.70;;;;;;4983313;28;20508;-86
2022/05/13 11:54:26;;;;;;;2.37;1.57;;;25.00;55.70;;;;;;5002341;28;20435;-86
2022/05/13 11:57:13;;;;;;;1.97;1.77;;;25.00;55.70;;;;;;4987585;28;20409;-86
2022/05/13 11:59:47;;;;;;;2.27;1.33;;;25.00;55.70;;;;;;4979893;28;20413;-86
2022/05/13 12:02:46;;;;;;;1.67;1.33;;;25.00;55.70;;;;;;4987415;28;20467;-86
2022/05/13 12:05:17;;;;;;;1.60;1.50;;;25.00;55.60;;;;;;5002684;28;20413;-86
2022/05/13 12:07:55;;;;;;;1.77;1.53;;;25.00;55.60;;;;;;4985727;28;20459;-86
2022/05/13 12:10:45;;;;;;;1.50;1.40;;;25.00;55.60;;;;;;4986353;28;20459;-86
2022/05/13 12:13:49;;;;;;;2.50;1.40;;;25.00;55.60;;;;;;4986548;28;20433;-86
2022/05/13 12:16:33;;;;;;;1.90;1.50;;;25.00;55.60;;;;;;4965452;29;20425;-86
2022/05/13 12:19:10;;;;;;;1.70;1.60;;;25.00;55.60;;;;;;4985552;28;20448;-85
2022/05/13 12:22:05;;;;;;;2.33;1.77;;;25.00;55.70;;;;;;4985650;28;20456;-85
2022/05/13 12:25:02;;;;;;;1.50;1.40;;;25.00;55.70;;;;;;4976457;28;20543;-85
2022/05/13 12:27:38;;;;;;;2.20;1.60;;;25.00;55.60;;;;;;4985698;28;20535;-85
2022/05/13 12:30:11;;;;;;;2.53;1.40;;;25.00;55.70;;;;;;4985744;28;20427;-85
2022/05/13 12:32:43;;;;;;;2.20;1.50;;;25.00;55.70;;;;;;5002398;28;20421;-85
2022/05/13 12:38:14;;;;;;;2.37;1.40;;;25.00;55.60;;;;;;4986920;28;20397;-85
2022/05/13 12:40:50;;;;;;;1.87;1.63;;;25.00;55.60;;;;;;4986097;28;20789;-86
2022/05/13 12:43:21;;;;;;;1.90;1.67;;;25.00;55.60;;;;;;4986516;28;20197;-86
2022/05/13 12:46:14;;;;;;;1.40;1.30;;;25.00;55.60;;;;;;5001311;28;20412;-86
2022/05/13 12:49:03;;;;;;;2.67;1.90;;;25.00;55.60;;;;;;4984718;28;20402;-86
2022/05/13 12:51:40;;;;;;;1.97;1.60;;;25.00;55.60;;;;;;4986398;28;20419;-87
2022/05/13 12:54:07;;;;;;;2.17;1.70;;;25.00;55.60;;;;;;5001038;28;20417;-86
2022/05/13 12:56:51;;;;;;;2.93;1.70;;;25.00;55.60;;;;;;4984558;28;20426;-86
2022/05/13 12:59:24;;;;;;;2.10;1.80;;;25.00;55.60;;;;;;4984385;28;20420;-86
2022/05/13 13:01:53;;;;;;;2.70;2.10;;;25.00;55.60;;;;;;4986194;28;20445;-87
2022/05/13 13:04:25;;;;;;;3.07;1.60;;;25.00;55.60;;;;;;4983581;28;20417;-86
2022/05/13 13:07:08;;;;;;;5.70;1.83;;;25.00;55.60;;;;;;4984952;28;20414;-85
2022/05/13 13:09:40;;;;;;;1.47;1.37;;;25.00;55.60;;;;;;4983864;28;20417;-87
2022/05/13 13:12:26;;;;;;;2.10;1.70;;;25.00;55.50;;;;;;5000121;28;20973;-86
2022/05/13 13:14:52;;;;;;;2.43;1.60;;;25.00;55.50;;;;;;4984909;28;20476;-86
2022/05/13 13:17:36;;;;;;;2.53;1.57;;;25.00;55.60;;;;;;4984043;28;20425;-87
2022/05/13 13:20:05;;;;;;;1.70;1.40;;;25.10;55.60;;;;;;4985746;28;20166;-86
2022/05/13 13:22:39;;;;;;;2.40;1.80;;;25.00;55.60;;;;;;5000704;28;20465;-86
2022/05/13 13:25:22;;;;;;;2.80;1.47;;;25.00;55.60;;;;;;5000465;28;20437;-86
2022/05/13 13:27:48;;;;;;;1.60;1.50;;;25.00;55.60;;;;;;4984422;28;20438;-85
2022/05/13 13:30:22;;;;;;;2.50;1.77;;;25.00;55.60;;;;;;4984393;28;20421;-85
2022/05/13 13:32:50;;;;;;;2.40;1.83;;;25.10;55.60;;;;;;5000941;28;20418;-87
2022/05/13 13:35:27;;;;;;;2.13;1.37;;;25.10;55.60;;;;;;4984271;28;20918;-88
2022/05/13 13:37:54;;;;;;;2.03;1.50;;;25.00;55.60;;;;;;4998969;28;20867;-87
2022/05/13 13:40:22;;;;;;;2.33;1.77;;;25.10;55.60;;;;;;4983966;28;20432;-89
2022/05/13 13:42:48;;;;;;;3.30;1.77;;;25.10;55.70;;;;;;4984363;28;20505;-86
2022/05/13 13:45:21;;;;;;;2.60;1.67;;;25.10;55.60;;;;;;4999410;28;20429;-86
2022/05/13 13:47:49;;;;;;;2.33;1.50;;;25.10;55.70;;;;;;4984282;28;20434;-86
2022/05/13 13:50:21;;;;;;;1.77;1.57;;;25.10;55.70;;;;;;4983249;28;20418;-87
2022/05/13 13:52:49;;;;;;;2.67;1.60;;;25.10;55.70;;;;;;4983236;28;20433;-87
2022/05/13 13:55:22;;;;;;;4.50;1.60;;;25.10;55.70;;;;;;4998441;28;20562;-89
2022/05/13 13:58:11;;;;;;;3.60;1.80;;;25.10;55.70;;;;;;4998998;28;20425;-87
2022/05/13 14:00:42;;;;;;;3.63;1.50;;;25.10;55.70;;;;;;4998852;28;20425;-86
2022/05/13 14:03:27;;;;;;;2.30;1.50;;;25.10;55.70;;;;;;4998638;28;20486;-87
2022/05/13 14:06:03;;;;;;;4.50;1.93;;;25.10;55.70;;;;;;4984571;28;20393;-87
2022/05/13 14:08:36;;;;;;;2.47;1.63;;;25.10;55.70;;;;;;4983647;28;20397;-87
2022/05/13 14:11:12;;;;;;;2.37;1.83;;;25.10;55.70;;;;;;4984388;28;20402;-88
2022/05/13 14:13:43;;;;;;;2.43;1.80;;;25.10;55.70;;;;;;4983223;28;20397;-88
2022/05/13 14:16:43;;;;;;;3.47;2.00;;;25.10;55.70;;;;;;4982907;28;20455;-86
2022/05/13 14:19:16;;;;;;;2.70;1.53;;;25.10;55.70;;;;;;4984351;28;20433;-88